Aeroporto :
LOGIN :

Iscrizione | Disclaimer

   EN    FR    IT 

 










Sommario :    VFR   VFR Marginale   IFR   IFR Intensivo   IFR Molto Intensivo
Visibilità : 
Base nubi : 
>= 8 km
>= 3000ft
5 / 8 km
1000 / 3000 ft
1500m / 5 km
500 / 1000 ft
800 / 1500m
200 / 500 ft
< 800m
< 200 ft
Simboli :   Temporali  Nebbia  Neve Forte  Precipitazioni Forti  Vento > 20 kt
SIGMETs :   Varie  Temporali  Ghiacco  Turbolenza  Onda orograficha  Ceneri Vulcaniche







- Altitudine del aeroporto : 458 ft
- Carte del aeroporto


LFSI - St-Dizier

ULTIMO METAR :
  • 240730Z AUTO 17011KT 140V200 CAVOK 18/08 Q0999

METARs OBSOLETI :
  • 240700Z AUTO 16010KT 130V190 CAVOK 17/08 Q0999
  • 240630Z AUTO 15010KT 120V180 CAVOK 16/08 Q0999
  • 240600Z AUTO 15009KT 120V190 CAVOK 16/08 Q0999
  • 240530Z AUTO 16009KT CAVOK 15/08 Q0999
  • 240500Z AUTO 15011KT 9999 NSC 15/08 Q0998

TAF TAF LFSI
Valido dal 24 a 03 ore il 25 a 03 ore UTC


240200Z 2403/2503 20010KT CAVOK
BECMG 2407/2409 18015G25KT
TEMPO 2409/2415 18015G35KT 4000 SHRA BKN040TCU BKN060 BKN100
PROB30
TEMPO 2413/2417 3000 SHRA FEW040CB
BECMG 2418/2420 16010KT
Nessun NOTAM noto per questo aeroporto.
1 SIGMET conosciuto per la FIR Paris (LFFF) :
 
Turbolenza severa
LFFF SIGMET 1 VALID 240700/241100 LFPW
LFFF PARIS FIR/UIR SEV TURB FCST SE OF LINE N4715 E00430 - N4630 E00400 SFC/FL080 STNR INTSF=



MetMap, La meteo Aeronautica in un colpo d'occhio ! - Copyright ORBIFLY Dicembre 2007 - Disclaimer

ORBIFLY MET'MAP TEAM :

Programmazione e sviluppo : Alexandra Zaïnal
Concezione e sviluppo : Baudouin d'Aumeries
Co-Programmazione e sviluppo : Marc-Olivier Méhu
Supporto tecnico e logistico : Manuel Goepfert
Aiuto per la traduzione : Arnaldo La Scala

Contatto : metmap@orbifly.com




FONTI E CREDITI :

   NOAA